^^
Your Local Weather - Clay, NY Station Historical Data
Daily Summary for October 28, 2017 Units:  English    Metric   Both
« Previous Day
Next Day »
Daily Weekly Monthly Yearly Custom
  High: Low: Average:
Temperature: 70.5 °F 47.2 °F 57.1 °F
Dew Point: 52.2 °F 36.4 °F 44.3 °F
Humidity: 92% 41% 65%
Wind Speed: 9.0mph 0.0mph 3.2mph
Wind Gust: 17.0mph - -
Wind- - SSW
Pressure: 29.90 in 29.70 in -
Precipitation: 0.12 in    
Historical Graphs
 
 
Tabular Data for October 28, 2017
Time Temperature Dew Point Pressure Wind Wind Speed Wind Gust Humidity Rainfall Rate (Hourly) solar
00:00 53.9 °F 37.1 °F 29.88 in ESE 2.0 mph 2.0 mph 53% 0.00 in 0 W/m2
00:06 53.3 °F 37.5 °F 29.88 in SSE 1.0 mph 3.0 mph 55% 0.00 in 0 W/m2
00:12 52.9 °F 36.7 °F 29.88 in SSE 1.0 mph 1.0 mph 54% 0.00 in 0 W/m2
00:18 53.1 °F 36.4 °F 29.89 in SE 2.0 mph 2.0 mph 53% 0.00 in 0 W/m2
00:24 53.4 °F 36.7 °F 29.89 in SE 1.0 mph 2.0 mph 53% 0.00 in 0 W/m2
00:30 52.6 °F 36.9 °F 29.89 in SE 1.0 mph 5.0 mph 55% 0.00 in 0 W/m2
00:36 52.7 °F 37.4 °F 29.89 in South 2.0 mph 5.0 mph 56% 0.00 in 0 W/m2
00:42 53.8 °F 37.5 °F 29.89 in SSE 2.0 mph 3.0 mph 54% 0.00 in 0 W/m2
00:48 54.2 °F 36.9 °F 29.90 in SE 3.0 mph 5.0 mph 52% 0.00 in 0 W/m2
00:54 54.6 °F 37.3 °F 29.90 in South 3.0 mph 5.0 mph 52% 0.00 in 0 W/m2
01:00 54.5 °F 37.2 °F 29.89 in SE 3.0 mph 3.0 mph 52% 0.00 in 0 W/m2
01:06 54.3 °F 37.5 °F 29.89 in SE 3.0 mph 4.0 mph 53% 0.00 in 0 W/m2
01:12 54.4 °F 37.6 °F 29.88 in SE 4.0 mph 7.0 mph 53% 0.00 in 0 W/m2
01:18 54.6 °F 37.8 °F 29.88 in SSE 4.0 mph 8.0 mph 53% 0.00 in 0 W/m2
01:24 54.3 °F 38.0 °F 29.88 in SE 3.0 mph 5.0 mph 54% 0.00 in 0 W/m2
01:30 54.0 °F 38.2 °F 29.88 in SSW 3.0 mph 3.0 mph 55% 0.00 in 0 W/m2
01:36 53.9 °F 38.1 °F 29.88 in SE 4.0 mph 4.0 mph 55% 0.00 in 0 W/m2
01:42 53.7 °F 38.4 °F 29.88 in ESE 3.0 mph 4.0 mph 56% 0.00 in 0 W/m2
01:48 53.8 °F 38.5 °F 29.88 in SE 3.0 mph 4.0 mph 56% 0.00 in 0 W/m2
01:54 53.9 °F 38.6 °F 29.88 in SSE 3.0 mph 4.0 mph 56% 0.00 in 0 W/m2
02:00 54.1 °F 39.2 °F 29.88 in SE 3.0 mph 3.0 mph 57% 0.00 in 0 W/m2
02:06 54.1 °F 39.2 °F 29.88 in SSE 3.0 mph 5.0 mph 57% 0.00 in 0 W/m2
02:12 53.9 °F 39.5 °F 29.88 in SSE 3.0 mph 3.0 mph 58% 0.00 in 0 W/m2
02:18 53.8 °F 39.4 °F 29.88 in SSE 3.0 mph 3.0 mph 58% 0.00 in 0 W/m2
02:24 54.0 °F 39.5 °F 29.88 in SSE 3.0 mph 5.0 mph 58% 0.00 in 0 W/m2
02:30 54.3 °F 39.8 °F 29.88 in South 3.0 mph 3.0 mph 58% 0.00 in 0 W/m2
02:36 54.4 °F 39.9 °F 29.88 in SSE 4.0 mph 5.0 mph 58% 0.00 in 0 W/m2
02:42 54.2 °F 40.2 °F 29.88 in SSE 4.0 mph 6.0 mph 59% 0.00 in 0 W/m2
02:48 54.0 °F 40.0 °F 29.88 in SE 5.0 mph 6.0 mph 59% 0.00 in 0 W/m2
02:54 54.0 °F 40.4 °F 29.88 in SSE 5.0 mph 5.0 mph 60% 0.00 in 0 W/m2
03:00 54.4 °F 40.4 °F 29.88 in SSE 6.0 mph 6.0 mph 59% 0.00 in 0 W/m2
03:06 54.5 °F 40.5 °F 29.87 in SE 5.0 mph 8.0 mph 59% 0.00 in 0 W/m2
03:12 54.4 °F 40.4 °F 29.87 in SSE 5.0 mph 9.0 mph 59% 0.00 in 0 W/m2
03:18 54.4 °F 40.4 °F 29.87 in SE 4.0 mph 9.0 mph 59% 0.00 in 0 W/m2
03:24 54.1 °F 40.5 °F 29.86 in SE 3.0 mph 4.0 mph 60% 0.00 in 0 W/m2
03:30 54.1 °F 40.5 °F 29.86 in SSE 3.0 mph 3.0 mph 60% 0.00 in 0 W/m2
03:36 54.2 °F 40.6 °F 29.86 in SSE 4.0 mph 8.0 mph 60% 0.00 in 0 W/m2
03:42 53.9 °F 40.8 °F 29.86 in South 5.0 mph 5.0 mph 61% 0.00 in 0 W/m2
03:48 53.9 °F 40.8 °F 29.85 in SSE 4.0 mph 6.0 mph 61% 0.00 in 0 W/m2
03:54 53.7 °F 40.6 °F 29.85 in ESE 4.0 mph 8.0 mph 61% 0.00 in 0 W/m2
04:00 53.3 °F 40.6 °F 29.85 in South 4.0 mph 4.0 mph 62% 0.00 in 0 W/m2
04:12 53.1 °F 40.8 °F 29.85 in SSE 4.0 mph 9.0 mph 63% 0.00 in 0 W/m2
04:18 52.8 °F 41.0 °F 29.85 in SSE 4.0 mph 9.0 mph 64% 0.00 in 0 W/m2
04:24 52.5 °F 40.7 °F 29.84 in SSE 3.0 mph 4.0 mph 64% 0.00 in 0 W/m2
04:30 52.2 °F 40.8 °F 29.84 in SSE 2.0 mph 2.0 mph 65% 0.00 in 0 W/m2
04:36 51.9 °F 40.5 °F 29.84 in SSE 2.0 mph 4.0 mph 65% 0.00 in 0 W/m2
04:42 51.6 °F 40.6 °F 29.84 in SSE 2.0 mph 2.0 mph 66% 0.00 in 0 W/m2
04:48 50.8 °F 40.2 °F 29.84 in Calm   2.0 mph 67% 0.00 in 0 W/m2
04:54 49.9 °F 40.1 °F 29.84 in Calm   2.0 mph 69% 0.00 in 0 W/m2
05:00 49.0 °F 40.0 °F 29.84 in Calm   2.0 mph 71% 0.00 in 0 W/m2
05:06 48.8 °F 40.2 °F 29.83 in SSE 1.0 mph 2.0 mph 72% 0.00 in 0 W/m2
05:12 48.4 °F 40.1 °F 29.83 in Calm   3.0 mph 73% 0.00 in 0 W/m2
05:18 48.0 °F 40.1 °F 29.83 in SSE 1.0 mph 3.0 mph 74% 0.00 in 0 W/m2
05:24 48.2 °F 40.6 °F 29.83 in East 1.0 mph 1.0 mph 75% 0.00 in 0 W/m2
05:30 48.3 °F 40.7 °F 29.83 in East 1.0 mph 1.0 mph 75% 0.00 in 0 W/m2
05:36 48.0 °F 40.5 °F 29.83 in Calm   3.0 mph 75% 0.00 in 0 W/m2
05:42 47.8 °F 40.6 °F 29.83 in East 1.0 mph 2.0 mph 76% 0.00 in 0 W/m2
05:48 47.5 °F 40.6 °F 29.83 in East 1.0 mph 2.0 mph 77% 0.00 in 0 W/m2
05:54 47.4 °F 40.9 °F 29.83 in NNE 2.0 mph 5.0 mph 78% 0.00 in 0 W/m2
06:00 47.2 °F 40.7 °F 29.83 in NNE 2.0 mph 2.0 mph 78% 0.00 in 0 W/m2
06:06 48.2 °F 41.7 °F 29.83 in East 2.0 mph 3.0 mph 78% 0.00 in 0 W/m2
06:12 49.3 °F 42.1 °F 29.83 in SE 2.0 mph 4.0 mph 76% 0.00 in 0 W/m2
06:18 50.1 °F 42.1 °F 29.83 in SE 2.0 mph 4.0 mph 74% 0.00 in 0 W/m2
06:24 51.1 °F 42.4 °F 29.83 in SE 3.0 mph 3.0 mph 72% 0.00 in 0 W/m2
06:30 51.6 °F 42.5 °F 29.83 in SE 4.0 mph 4.0 mph 71% 0.00 in 0 W/m2
06:36 51.3 °F 42.2 °F 29.83 in SE 3.0 mph 5.0 mph 71% 0.00 in 0 W/m2
06:42 52.0 °F 42.9 °F 29.83 in SSE 4.0 mph 4.0 mph 71% 0.00 in 0 W/m2
06:48 51.9 °F 42.8 °F 29.83 in SE 3.0 mph 5.0 mph 71% 0.00 in 0 W/m2
06:54 51.9 °F 42.8 °F 29.82 in SE 3.0 mph 5.0 mph 71% 0.00 in 0 W/m2
07:00 51.7 °F 42.6 °F 29.82 in SSE 3.0 mph 3.0 mph 71% 0.00 in 0 W/m2
07:06 51.8 °F 42.7 °F 29.82 in SSE 3.0 mph 5.0 mph 71% 0.00 in 0 W/m2
07:12 51.9 °F 42.8 °F 29.82 in SE 3.0 mph 3.0 mph 71% 0.00 in 0 W/m2
07:18 51.9 °F 42.8 °F 29.82 in SSE 3.0 mph 3.0 mph 71% 0.00 in 0 W/m2
07:24 51.4 °F 42.3 °F 29.82 in SSE 1.0 mph 4.0 mph 71% 0.00 in 0 W/m2
07:30 51.4 °F 42.7 °F 29.82 in SSE 1.0 mph 1.0 mph 72% 0.00 in 5 W/m2
07:36 51.1 °F 42.4 °F 29.82 in Calm   1.0 mph 72% 0.00 in 9 W/m2
07:42 50.7 °F 42.4 °F 29.81 in Calm     73% 0.00 in 12 W/m2
07:48 50.4 °F 42.4 °F 29.81 in SE 1.0 mph 4.0 mph 74% 0.00 in 19 W/m2
07:54 49.9 °F 42.3 °F 29.81 in SE 1.0 mph 2.0 mph 75% 0.00 in 26 W/m2
08:00 50.3 °F 43.0 °F 29.81 in SE 1.0 mph 2.0 mph 76% 0.00 in 33 W/m2
08:06 50.3 °F 42.7 °F 29.82 in SE 1.0 mph 2.0 mph 75% 0.00 in 39 W/m2
08:12 50.4 °F 43.1 °F 29.82 in SE 1.0 mph 2.0 mph 76% 0.00 in 47 W/m2
08:18 50.5 °F 43.2 °F 29.82 in SE 1.0 mph 2.0 mph 76% 0.00 in 60 W/m2
08:24 51.3 °F 43.6 °F 29.82 in SE 1.0 mph 2.0 mph 75% 0.00 in 62 W/m2
08:30 52.4 °F 44.0 °F 29.82 in SE 2.0 mph 4.0 mph 73% 0.00 in 65 W/m2
08:36 53.2 °F 44.0 °F 29.82 in SSE 3.0 mph 4.0 mph 71% 0.00 in 84 W/m2
08:40 53.8 °F 44.2 °F 29.82 in SE 4.0 mph 4.0 mph 70% 0.00 in 81 W/m2
08:46 54.2 °F 44.6 °F 29.82 in SE 3.0 mph 4.0 mph 70% 0.00 in 88 W/m2
08:52 54.7 °F 44.7 °F 29.82 in SSE 2.0 mph 2.0 mph 69% 0.00 in 192 W/m2
08:58 55.2 °F 44.8 °F 29.82 in SSE 1.0 mph 2.0 mph 68% 0.00 in 118 W/m2
09:04 55.5 °F 44.7 °F 29.81 in Calm   1.0 mph 67% 0.00 in 91 W/m2
09:10 55.6 °F 44.8 °F 29.81 in Calm     67% 0.00 in 148 W/m2
09:16 56.1 °F 44.9 °F 29.81 in Calm     66% 0.00 in 167 W/m2
09:22 56.5 °F 45.3 °F 29.81 in ENE 1.0 mph 3.0 mph 66% 0.00 in 162 W/m2
09:28 56.7 °F 45.5 °F 29.80 in ENE 2.0 mph 3.0 mph 66% 0.00 in 241 W/m2
09:34 56.9 °F 45.3 °F 29.80 in ENE 2.0 mph 3.0 mph 65% 0.00 in 156 W/m2
09:40 57.0 °F 46.1 °F 29.80 in ENE 1.0 mph 1.0 mph 67% 0.00 in 144 W/m2
09:46 57.3 °F 45.6 °F 29.80 in ESE 1.0 mph 2.0 mph 65% 0.00 in 144 W/m2
09:52 57.6 °F 45.5 °F 29.80 in SE 2.0 mph 3.0 mph 64% 0.00 in 142 W/m2
09:58 58.2 °F 45.2 °F 29.80 in South 3.0 mph 5.0 mph 62% 0.00 in 130 W/m2
10:04 58.5 °F 45.1 °F 29.80 in SSE 6.0 mph 6.0 mph 61% 0.00 in 134 W/m2
10:10 59.1 °F 45.7 °F 29.79 in SE 6.0 mph 12.0 mph 61% 0.00 in 283 W/m2
10:16 59.8 °F 45.9 °F 29.79 in SSE 5.0 mph 12.0 mph 60% 0.00 in 352 W/m2
10:22 60.7 °F 46.3 °F 29.78 in SW 6.0 mph 8.0 mph 59% 0.00 in 436 W/m2
10:28 60.9 °F 45.6 °F 29.78 in SE 8.0 mph 13.0 mph 57% 0.00 in 443 W/m2
10:34 61.3 °F 45.9 °F 29.78 in SW 9.0 mph 17.0 mph 57% 0.00 in 443 W/m2
10:40 61.1 °F 45.7 °F 29.78 in SSW 8.0 mph 11.0 mph 57% 0.00 in 297 W/m2
10:46 61.4 °F 46.5 °F 29.77 in SW 8.0 mph 11.0 mph 58% 0.00 in 536 W/m2
10:52 62.2 °F 46.3 °F 29.77 in SSW 8.0 mph 9.0 mph 56% 0.00 in 478 W/m2
10:58 62.8 °F 46.9 °F 29.77 in SSW 8.0 mph 9.0 mph 56% 0.00 in 506 W/m2
11:04 63.0 °F 46.6 °F 29.77 in SSE 5.0 mph 7.0 mph 55% 0.00 in 563 W/m2
11:10 63.8 °F 46.3 °F 29.76 in SW 5.0 mph 5.0 mph 53% 0.00 in 418 W/m2
11:16 63.4 °F 46.0 °F 29.76 in SSW 6.0 mph 10.0 mph 53% 0.00 in 230 W/m2
11:22 63.2 °F 45.8 °F 29.75 in SSE 7.0 mph 7.0 mph 53% 0.00 in 265 W/m2
11:28 63.6 °F 45.6 °F 29.75 in WSW 7.0 mph 9.0 mph 52% 0.00 in 264 W/m2
11:34 64.6 °F 46.6 °F 29.75 in SSE 6.0 mph 8.0 mph 52% 0.00 in 510 W/m2
11:40 64.9 °F 46.3 °F 29.75 in SW 7.0 mph 7.0 mph 51% 0.00 in 348 W/m2
11:46 65.7 °F 47.1 °F 29.75 in SW 6.0 mph 7.0 mph 51% 0.00 in 540 W/m2
11:52 65.8 °F 45.6 °F 29.75 in SW 4.0 mph 9.0 mph 48% 0.00 in 160 W/m2
11:58 65.3 °F 46.2 °F 29.75 in SSW 6.0 mph 9.0 mph 50% 0.00 in 322 W/m2
12:04 65.6 °F 45.9 °F 29.75 in South 5.0 mph 7.0 mph 49% 0.00 in 181 W/m2
12:10 65.7 °F 46.5 °F 29.74 in SW 5.0 mph 5.0 mph 50% 0.00 in 248 W/m2
12:16 66.0 °F 45.7 °F 29.74 in SSW 4.0 mph 5.0 mph 48% 0.00 in 221 W/m2
12:22 66.4 °F 46.7 °F 29.74 in SSW 5.0 mph 5.0 mph 49% 0.00 in 281 W/m2
12:28 68.3 °F 47.3 °F 29.74 in SW 6.0 mph 10.0 mph 47% 0.00 in 520 W/m2
12:34 68.8 °F 45.4 °F 29.74 in South 6.0 mph 6.0 mph 43% 0.00 in 517 W/m2
12:40 69.5 °F 46.6 °F 29.74 in SW 5.0 mph 9.0 mph 44% 0.00 in 624 W/m2
12:46 69.4 °F 44.7 °F 29.73 in SW 7.0 mph 9.0 mph 41% 0.00 in 413 W/m2
12:52 69.0 °F 44.9 °F 29.73 in SW 7.0 mph 8.0 mph 42% 0.00 in 429 W/m2
12:58 68.6 °F 45.2 °F 29.73 in South 6.0 mph 8.0 mph 43% 0.00 in 251 W/m2
13:04 67.9 °F 45.2 °F 29.73 in SW 6.0 mph 7.0 mph 44% 0.00 in 237 W/m2
13:10 67.7 °F 45.6 °F 29.73 in SSW 6.0 mph 7.0 mph 45% 0.00 in 216 W/m2
13:16 67.8 °F 45.7 °F 29.73 in WSW 6.0 mph 8.0 mph 45% 0.00 in 227 W/m2
13:22 67.9 °F 45.8 °F 29.72 in South 5.0 mph 5.0 mph 45% 0.00 in 243 W/m2
13:28 68.1 °F 45.4 °F 29.72 in South 5.0 mph 7.0 mph 44% 0.00 in 250 W/m2
13:34 68.2 °F 44.8 °F 29.72 in SSW 7.0 mph 12.0 mph 43% 0.00 in 413 W/m2
13:40 68.6 °F 45.2 °F 29.72 in South 8.0 mph 8.0 mph 43% 0.00 in 406 W/m2
13:46 69.0 °F 45.6 °F 29.72 in West 8.0 mph 8.0 mph 43% 0.00 in 297 W/m2
13:52 69.4 °F 45.9 °F 29.72 in SE 7.0 mph 14.0 mph 43% 0.00 in 413 W/m2
13:58 69.4 °F 45.3 °F 29.72 in SSW 8.0 mph 14.0 mph 42% 0.00 in 353 W/m2
14:04 69.2 °F 45.7 °F 29.72 in SW 8.0 mph 11.0 mph 43% 0.00 in 329 W/m2
14:10 69.3 °F 45.8 °F 29.71 in SW 8.0 mph 8.0 mph 43% 0.00 in 563 W/m2
14:16 69.7 °F 46.2 °F 29.71 in South 6.0 mph 8.0 mph 43% 0.00 in 332 W/m2
14:22 69.7 °F 45.6 °F 29.71 in SSE 6.0 mph 9.0 mph 42% 0.00 in 413 W/m2
14:28 69.9 °F 47.0 °F 29.71 in South 7.0 mph 11.0 mph 44% 0.00 in 575 W/m2
14:34 69.4 °F 45.3 °F 29.70 in SW 8.0 mph 8.0 mph 42% 0.00 in 202 W/m2
14:40 69.1 °F 45.7 °F 29.70 in SSW 7.0 mph 7.0 mph 43% 0.00 in 197 W/m2
14:46 69.2 °F 45.7 °F 29.70 in SSW 5.0 mph 7.0 mph 43% 0.00 in 330 W/m2
14:52 69.9 °F 46.4 °F 29.70 in SSW 5.0 mph 5.0 mph 43% 0.00 in 360 W/m2
14:58 70.5 °F 46.3 °F 29.70 in SW 5.0 mph 10.0 mph 42% 0.00 in 302 W/m2
15:04 69.9 °F 45.1 °F 29.70 in SSE 7.0 mph 15.0 mph 41% 0.00 in 229 W/m2
15:10 69.4 °F 45.3 °F 29.70 in South 8.0 mph 8.0 mph 42% 0.00 in 186 W/m2
15:16 69.1 °F 44.4 °F 29.70 in SSW 8.0 mph 11.0 mph 41% 0.00 in 183 W/m2
15:22 68.8 °F 44.8 °F 29.70 in South 7.0 mph 7.0 mph 42% 0.00 in 139 W/m2
15:28 68.4 °F 44.4 °F 29.71 in South 7.0 mph 7.0 mph 42% 0.00 in 98 W/m2
15:34 68.1 °F 44.1 °F 29.71 in South 8.0 mph 10.0 mph 42% 0.00 in 139 W/m2
15:40 68.1 °F 44.7 °F 29.71 in SSE 9.0 mph 10.0 mph 43% 0.00 in 137 W/m2
15:46 67.9 °F 45.2 °F 29.71 in SW 9.0 mph 10.0 mph 44% 0.00 in 76 W/m2
15:52 67.8 °F 45.1 °F 29.71 in SSW 8.0 mph 9.0 mph 44% 0.00 in 46 W/m2
15:58 67.5 °F 44.8 °F 29.71 in SW 7.0 mph 9.0 mph 44% 0.00 in 35 W/m2
16:04 67.3 °F 45.2 °F 29.71 in SSE 6.0 mph 9.0 mph 45% 0.00 in 33 W/m2
16:10 67.3 °F 45.2 °F 29.70 in South 7.0 mph 7.0 mph 45% 0.00 in 51 W/m2
16:16 67.2 °F 45.1 °F 29.71 in SW 7.0 mph 12.0 mph 45% 0.00 in 26 W/m2
16:22 67.1 °F 45.6 °F 29.71 in SW 7.0 mph 7.0 mph 46% 0.00 in 42 W/m2
16:28 67.0 °F 45.5 °F 29.71 in South 5.0 mph 7.0 mph 46% 0.00 in 37 W/m2
16:34 66.8 °F 45.9 °F 29.71 in South 3.0 mph 5.0 mph 47% 0.00 in 16 W/m2
16:40 66.7 °F 45.3 °F 29.71 in SSW 4.0 mph 4.0 mph 46% 0.00 in 11 W/m2
16:46 66.6 °F 45.7 °F 29.71 in SSE 5.0 mph 6.0 mph 47% 0.00 in 12 W/m2
16:52 66.4 °F 46.1 °F 29.71 in SSE 5.0 mph 5.0 mph 48% 0.00 in 9 W/m2
16:58 66.3 °F 45.5 °F 29.71 in SSW 4.0 mph 7.0 mph 47% 0.00 in 7 W/m2
17:04 66.4 °F 45.5 °F 29.71 in South 6.0 mph 8.0 mph 47% 0.00 in 5 W/m2
17:10 66.4 °F 45.5 °F 29.72 in South 6.0 mph 6.0 mph 47% 0.00 in 0 W/m2
17:16 66.2 °F 45.9 °F 29.72 in SSE 4.0 mph 6.0 mph 48% 0.00 in 0 W/m2
17:22 66.2 °F 45.4 °F 29.72 in SSW 4.0 mph 4.0 mph 47% 0.00 in 0 W/m2
17:28 66.1 °F 45.8 °F 29.72 in SSW 4.0 mph 4.0 mph 48% 0.00 in 5 W/m2
17:34 66.0 °F 46.3 °F 29.72 in SW 3.0 mph 3.0 mph 49% 0.00 in 5 W/m2
17:40 65.8 °F 46.6 °F 29.72 in SSW 2.0 mph 2.0 mph 50% 0.00 in 7 W/m2
17:46 65.4 °F 47.8 °F 29.72 in SSW 1.0 mph 2.0 mph 53% 0.00 in 0 W/m2
17:52 64.8 °F 49.2 °F 29.72 in Calm     57% 0.00 in 0 W/m2
17:58 64.0 °F 48.9 °F 29.72 in Calm     58% 0.00 in 0 W/m2
18:04 63.5 °F 48.5 °F 29.73 in Calm   1.0 mph 58% 0.00 in 0 W/m2
18:10 63.0 °F 49.8 °F 29.73 in Calm     62% 0.00 in 0 W/m2
18:16 62.5 °F 49.3 °F 29.74 in Calm   2.0 mph 62% 0.00 in 0 W/m2
18:22 62.2 °F 48.6 °F 29.74 in SW 1.0 mph 3.0 mph 61% 0.00 in 0 W/m2
18:28 62.0 °F 48.8 °F 29.75 in WSW 2.0 mph 3.0 mph 62% 0.00 in 0 W/m2
18:34 61.9 °F 48.7 °F 29.75 in West 3.0 mph 6.0 mph 62% 0.00 in 0 W/m2
18:40 61.5 °F 49.6 °F 29.76 in WSW 2.0 mph 2.0 mph 65% 0.00 in 0 W/m2
18:52 58.4 °F 51.6 °F 29.77 in NW 2.0 mph 2.0 mph 78% 0.00 in 0 W/m2
18:58 57.2 °F 51.8 °F 29.77 in NW 1.0 mph 4.0 mph 82% 0.00 in 0 W/m2
19:04 56.7 °F 51.9 °F 29.77 in NW 1.0 mph 2.0 mph 84% 0.00 in 0 W/m2
19:10 56.4 °F 51.9 °F 29.77 in Calm     85% 0.04 in 0 W/m2
19:16 56.2 °F 52.1 °F 29.77 in Calm     86% 0.04 in 0 W/m2
19:22 56.0 °F 52.2 °F 29.77 in Calm     87% 0.06 in 0 W/m2
19:28 55.7 °F 51.9 °F 29.78 in Calm     87% 0.06 in 0 W/m2
19:34 55.4 °F 51.9 °F 29.78 in NW 1.0 mph 4.0 mph 88% 0.04 in 0 W/m2
19:40 54.1 °F 50.6 °F 29.78 in NNW 3.0 mph 3.0 mph 88% 0.04 in 0 W/m2
19:46 53.2 °F 49.7 °F 29.79 in NW 3.0 mph 4.0 mph 88% 0.05 in 0 W/m2
19:52 52.2 °F 48.8 °F 29.79 in NNW 3.0 mph 3.0 mph 88% 0.05 in 0 W/m2
19:58 51.7 °F 48.6 °F 29.80 in NW 2.0 mph 5.0 mph 89% 0.04 in 0 W/m2
20:04 51.4 °F 48.3 °F 29.80 in NW 2.0 mph 3.0 mph 89% 0.00 in 0 W/m2
20:10 51.0 °F 48.2 °F 29.80 in NW 2.0 mph 2.0 mph 90% 0.00 in 0 W/m2
20:16 50.8 °F 48.0 °F 29.80 in NW 1.0 mph 5.0 mph 90% 0.00 in 0 W/m2
20:22 50.5 °F 47.7 °F 29.80 in NW 2.0 mph 3.0 mph 90% 0.00 in 0 W/m2
20:28 50.3 °F 47.5 °F 29.80 in NW 1.0 mph 3.0 mph 90% 0.00 in 0 W/m2
20:34 50.2 °F 47.4 °F 29.80 in NNW 1.0 mph 4.0 mph 90% 0.00 in 0 W/m2
20:40 49.9 °F 47.1 °F 29.80 in NNW 2.0 mph 2.0 mph 90% 0.00 in 0 W/m2
20:46 49.8 °F 47.0 °F 29.80 in NNW 1.0 mph 2.0 mph 90% 0.00 in 0 W/m2
20:52 49.7 °F 47.2 °F 29.80 in NNW 1.0 mph 1.0 mph 91% 0.00 in 0 W/m2
20:58 49.7 °F 46.9 °F 29.80 in NNW 1.0 mph 1.0 mph 90% 0.00 in 0 W/m2
21:04 49.6 °F 47.1 °F 29.81 in NNW 1.0 mph 2.0 mph 91% 0.00 in 0 W/m2
21:10 49.6 °F 47.1 °F 29.81 in NNW 1.0 mph 2.0 mph 91% 0.00 in 0 W/m2
21:16 49.5 °F 47.0 °F 29.81 in NNW 1.0 mph 2.0 mph 91% 0.00 in 0 W/m2
21:22 49.4 °F 46.9 °F 29.82 in Calm   1.0 mph 91% 0.00 in 0 W/m2
21:28 49.4 °F 46.9 °F 29.82 in Calm   1.0 mph 91% 0.00 in 0 W/m2
21:34 49.3 °F 46.8 °F 29.82 in Calm   2.0 mph 91% 0.00 in 0 W/m2
21:40 49.3 °F 46.8 °F 29.82 in NNW 1.0 mph 1.0 mph 91% 0.00 in 0 W/m2
21:46 49.3 °F 46.8 °F 29.83 in Calm   1.0 mph 91% 0.00 in 0 W/m2
21:52 49.3 °F 46.8 °F 29.83 in Calm   1.0 mph 91% 0.00 in 0 W/m2
21:58 49.2 °F 46.7 °F 29.83 in Calm   1.0 mph 91% 0.00 in 0 W/m2
22:04 49.2 °F 46.7 °F 29.83 in Calm     91% 0.00 in 0 W/m2
22:10 49.1 °F 46.6 °F 29.83 in NNW 1.0 mph 1.0 mph 91% 0.00 in 0 W/m2
22:16 49.0 °F 46.5 °F 29.83 in NNW 1.0 mph 1.0 mph 91% 0.00 in 0 W/m2
22:22 49.0 °F 46.5 °F 29.83 in Calm   1.0 mph 91% 0.00 in 0 W/m2
22:28 49.0 °F 46.5 °F 29.83 in Calm   1.0 mph 91% 0.00 in 0 W/m2
22:34 49.0 °F 46.8 °F 29.83 in Calm     92% 0.04 in 0 W/m2
22:40 48.9 °F 46.7 °F 29.83 in Calm     92% 0.04 in 0 W/m2
22:46 48.8 °F 46.6 °F 29.83 in Calm     92% 0.00 in 0 W/m2
22:52 48.8 °F 46.3 °F 29.83 in Calm     91% 0.00 in 0 W/m2
22:58 48.7 °F 46.2 °F 29.84 in Calm   1.0 mph 91% 0.00 in 0 W/m2
23:04 48.6 °F 46.4 °F 29.84 in Calm   2.0 mph 92% 0.00 in 0 W/m2
23:10 48.5 °F 46.0 °F 29.84 in Calm   3.0 mph 91% 0.00 in 0 W/m2
23:24 48.4 °F 46.2 °F 29.83 in NNW 1.0 mph 2.0 mph 92% 0.00 in 0 W/m2
23:28 48.4 °F 46.2 °F 29.84 in NNW 1.0 mph 2.0 mph 92% 0.00 in 0 W/m2
23:34 48.3 °F 46.1 °F 29.83 in North 1.0 mph 4.0 mph 92% 0.00 in 0 W/m2
23:38 47.9 °F 45.4 °F 29.83 in NNW 2.0 mph 4.0 mph 91% 0.00 in 0 W/m2
23:44 47.7 °F 45.2 °F 29.83 in NNW 1.0 mph 3.0 mph 91% 0.00 in 0 W/m2
23:50 47.6 °F 45.1 °F 29.83 in NNW 1.0 mph 1.0 mph 91% 0.00 in 0 W/m2
23:54 47.5 °F 45.0 °F 29.83 in NNW 1.0 mph 1.0 mph 91% 0.00 in 0 W/m2
23:58 47.4 °F 44.9 °F 29.83 in NNW 1.0 mph 1.0 mph 91% 0.00 in 0 W/m2
Country Meadow, Clay, NY, USA
Compliments of Weather Underground - 2 mb